Time;durP1;ratioP1;P1;durP2;ratioP2;P2;SDS_P1;SDS_P2;PMS_P1;PMS_P2;Temp;Humidity;BMP_temperature;BMP_pressure;BME280_temperature;BME280_humidity;BME280_pressure;Samples;Min_cycle;Max_cycle;Signal;HPM_P1;HPM_P2
2022/07/21 00:01:14;;;;;;;7.00;6.00;;;20.00;99.90;;;;;;5048679;28;20083;-72
2022/07/21 00:03:45;;;;;;;7.57;5.90;;;19.80;99.90;;;;;;5033138;28;20041;-71
2022/07/21 00:06:17;;;;;;;6.82;5.95;;;19.80;99.90;;;;;;5031725;28;20045;-72
2022/07/21 00:08:49;;;;;;;6.95;5.63;;;19.70;99.90;;;;;;5033854;28;20041;-72
2022/07/21 00:11:21;;;;;;;6.40;5.50;;;19.60;99.90;;;;;;5035179;28;20056;-72
2022/07/21 00:13:52;;;;;;;8.20;5.85;;;19.50;99.90;;;;;;5036379;28;20049;-72
2022/07/21 00:16:24;;;;;;;7.38;5.70;;;19.60;99.90;;;;;;5034626;28;20029;-72
2022/07/21 00:18:56;;;;;;;7.53;5.78;;;19.70;99.90;;;;;;5053036;28;20041;-72
2022/07/21 00:21:29;;;;;;;7.28;5.90;;;19.80;99.90;;;;;;5037261;28;20497;-72
2022/07/21 00:24:01;;;;;;;7.40;6.17;;;19.90;99.90;;;;;;5054354;28;20045;-72
2022/07/21 00:26:33;;;;;;;6.60;5.97;;;19.90;99.90;;;;;;5035057;28;20044;-72
2022/07/21 00:29:04;;;;;;;6.88;6.05;;;19.90;99.90;;;;;;5053858;28;20075;-72
2022/07/21 00:31:36;;;;;;;10.52;6.93;;;19.80;99.90;;;;;;5030810;28;20052;-72
2022/07/21 00:34:08;;;;;;;8.00;6.93;;;19.80;99.90;;;;;;5020153;28;20497;-72
2022/07/21 00:36:39;;;;;;;7.30;6.32;;;19.90;99.90;;;;;;5018965;28;20043;-72
2022/07/21 00:39:11;;;;;;;7.70;6.85;;;19.90;99.90;;;;;;5053693;28;20539;-72
2022/07/21 00:41:43;;;;;;;8.70;6.50;;;19.90;99.90;;;;;;5053930;28;20044;-72
2022/07/21 00:44:23;;;;;;;8.13;6.30;;;20.00;99.90;;;;;;5051031;28;20155;-72
2022/07/21 00:46:57;;;;;;;12.13;7.40;;;19.90;99.90;;;;;;5019514;28;20125;-72
2022/07/21 00:49:29;;;;;;;7.35;6.13;;;19.80;99.90;;;;;;5020033;28;20045;-72
2022/07/21 00:51:56;;;;;;;10.23;6.68;;;19.80;99.90;;;;;;5052538;28;20051;-72
2022/07/21 00:54:28;;;;;;;7.72;6.90;;;19.70;99.90;;;;;;5033719;28;20037;-72
2022/07/21 00:56:59;;;;;;;8.13;6.82;;;19.60;99.90;;;;;;5034271;28;20062;-72
2022/07/21 00:59:31;;;;;;;8.95;7.22;;;19.60;99.90;;;;;;5051531;28;20044;-72
2022/07/21 01:02:03;;;;;;;8.32;7.18;;;19.60;99.90;;;;;;5051237;28;20056;-72
2022/07/21 01:04:35;;;;;;;8.50;6.82;;;19.60;99.90;;;;;;5047877;28;20132;-72
2022/07/21 01:07:07;;;;;;;9.13;7.30;;;19.70;99.90;;;;;;5031235;28;20632;-72
2022/07/21 01:09:39;;;;;;;7.53;6.75;;;19.70;99.90;;;;;;5034260;28;20396;-72
2022/07/21 01:12:11;;;;;;;8.15;6.90;;;19.60;99.90;;;;;;5042893;28;20059;-72
2022/07/21 01:14:43;;;;;;;7.63;6.93;;;19.60;99.90;;;;;;5052433;28;20048;-72
2022/07/21 01:17:15;;;;;;;8.57;7.40;;;19.70;99.90;;;;;;5044121;28;20045;-72
2022/07/21 01:19:46;;;;;;;10.43;8.02;;;19.70;99.90;;;;;;5033076;28;20055;-72
2022/07/21 01:22:18;;;;;;;11.02;7.72;;;19.70;99.90;;;;;;5005909;28;20045;-72
2022/07/21 01:24:50;;;;;;;9.80;8.07;;;19.60;99.90;;;;;;5036875;28;20068;-72
2022/07/21 01:27:27;;;;;;;9.35;8.35;;;19.50;99.90;;;;;;5060715;28;20457;-71
2022/07/21 01:29:59;;;;;;;9.57;8.23;;;19.50;99.90;;;;;;5040443;28;20499;-72
2022/07/21 01:32:31;;;;;;;9.23;8.27;;;19.40;99.90;;;;;;5031415;28;20127;-72
2022/07/21 01:35:09;;;;;;;8.88;7.95;;;19.30;99.90;;;;;;5051516;28;20725;-72
2022/07/21 01:37:45;;;;;;;13.93;9.68;;;19.30;99.90;;;;;;5012421;28;20037;-72
2022/07/21 01:43:07;;;;;;;11.02;9.90;;;19.20;99.90;;;;;;5051799;28;20056;-72
2022/07/21 01:45:40;;;;;;;12.23;10.82;;;19.30;99.90;;;;;;5051510;28;20037;-72
2022/07/21 01:48:12;;;;;;;13.27;11.82;;;19.30;99.90;;;;;;5037094;28;20055;-72
2022/07/21 01:50:44;;;;;;;12.95;11.55;;;19.30;99.90;;;;;;5038970;28;20053;-72
2022/07/21 01:53:15;;;;;;;13.70;12.25;;;19.30;99.90;;;;;;5033803;28;20063;-72
2022/07/21 01:55:47;;;;;;;15.52;12.18;;;19.40;99.90;;;;;;5049563;28;20117;-72
2022/07/21 01:58:19;;;;;;;14.32;12.82;;;19.40;99.90;;;;;;5051216;28;20064;-72
2022/07/21 02:00:50;;;;;;;14.63;13.07;;;19.40;99.90;;;;;;5051812;28;20401;-72
2022/07/21 02:03:22;;;;;;;15.05;13.43;;;19.40;99.90;;;;;;5038154;28;20052;-72
2022/07/21 02:06:01;;;;;;;15.05;13.50;;;19.40;99.90;;;;;;5013630;28;20056;-72
2022/07/21 02:08:33;;;;;;;15.40;13.85;;;19.40;99.90;;;;;;5030351;28;20044;-72
2022/07/21 02:10:59;;;;;;;17.02;13.88;;;19.40;99.90;;;;;;5033134;28;20044;-72
2022/07/21 02:13:31;;;;;;;15.52;13.90;;;19.40;99.90;;;;;;5030126;28;20045;-72
2022/07/21 02:16:03;;;;;;;14.90;13.07;;;19.40;99.90;;;;;;5039927;28;20056;-72
2022/07/21 02:18:36;;;;;;;14.52;13.07;;;19.40;99.90;;;;;;5033158;28;20041;-72
2022/07/21 02:21:08;;;;;;;15.02;13.43;;;19.40;99.90;;;;;;5032675;28;20053;-72
2022/07/21 02:23:35;;;;;;;15.75;13.63;;;19.40;99.90;;;;;;5046772;28;20045;-72
2022/07/21 02:26:07;;;;;;;17.38;14.35;;;19.40;99.90;;;;;;5049709;28;20045;-72
2022/07/21 02:28:39;;;;;;;14.57;13.07;;;19.30;99.90;;;;;;5045963;28;20418;-72
2022/07/21 02:31:10;;;;;;;17.58;14.68;;;19.30;99.90;;;;;;5033233;28;20056;-72
2022/07/21 02:33:42;;;;;;;17.38;15.52;;;19.20;99.90;;;;;;5032336;28;20045;-72
2022/07/21 02:36:14;;;;;;;16.20;14.60;;;19.20;99.90;;;;;;5048255;28;20136;-72
2022/07/21 02:38:46;;;;;;;19.67;15.90;;;19.20;99.90;;;;;;5051138;28;20120;-72
2022/07/21 02:41:17;;;;;;;17.05;15.25;;;19.10;99.90;;;;;;5017026;28;20068;-72
2022/07/21 02:43:49;;;;;;;17.38;15.57;;;19.10;99.90;;;;;;5028313;28;20059;-72
2022/07/21 02:46:21;;;;;;;17.35;15.55;;;19.10;99.90;;;;;;5046433;28;20040;-72
2022/07/21 02:48:48;;;;;;;20.38;15.88;;;19.10;99.90;;;;;;5029703;28;20044;-72
2022/07/21 02:51:19;;;;;;;17.27;15.45;;;19.10;99.90;;;;;;5032362;28;20064;-72
2022/07/21 02:53:46;;;;;;;15.95;14.27;;;19.20;99.90;;;;;;5033083;28;20480;-72
2022/07/21 02:56:18;;;;;;;18.00;15.93;;;19.20;99.90;;;;;;5049220;28;20114;-72
2022/07/21 02:58:50;;;;;;;18.38;16.63;;;19.30;99.90;;;;;;5050646;28;20041;-72
2022/07/21 03:01:21;;;;;;;19.52;15.85;;;19.30;99.90;;;;;;5049858;28;20045;-72
2022/07/21 03:03:53;;;;;;;17.67;15.98;;;19.30;99.90;;;;;;5029141;28;20537;-72
2022/07/21 03:06:25;;;;;;;19.17;16.38;;;19.30;99.90;;;;;;5029808;28;20052;-72
2022/07/21 03:08:56;;;;;;;18.20;16.08;;;19.30;99.90;;;;;;5032684;28;20518;-72
2022/07/21 03:11:28;;;;;;;18.75;16.95;;;19.30;99.90;;;;;;5049749;28;20072;-72
2022/07/21 03:14:00;;;;;;;19.00;16.92;;;19.30;99.90;;;;;;5050158;28;20076;-72
2022/07/21 03:16:32;;;;;;;18.20;16.33;;;19.30;99.90;;;;;;5031136;28;20045;-71
2022/07/21 03:19:03;;;;;;;18.73;16.80;;;19.30;99.90;;;;;;5050385;28;20037;-72
2022/07/21 03:21:35;;;;;;;18.23;16.42;;;19.30;99.90;;;;;;5034007;28;20041;-72
2022/07/21 03:24:07;;;;;;;18.55;16.65;;;19.40;99.90;;;;;;5032663;28;20056;-72
2022/07/21 03:26:39;;;;;;;18.60;16.52;;;19.40;99.90;;;;;;5045615;28;20476;-72
2022/07/21 03:29:11;;;;;;;19.02;17.02;;;19.40;99.90;;;;;;5032626;28;20041;-72
2022/07/21 03:31:42;;;;;;;17.23;15.07;;;19.50;99.90;;;;;;5027737;28;20051;-71
2022/07/21 03:34:09;;;;;;;18.25;16.42;;;19.80;99.90;;;;;;5033018;28;20040;-72
2022/07/21 03:36:41;;;;;;;17.50;15.68;;;19.90;99.90;;;;;;5047283;28;20075;-72
2022/07/21 03:39:12;;;;;;;18.75;16.70;;;19.80;99.90;;;;;;5046192;28;20648;-72
2022/07/21 03:41:44;;;;;;;19.13;16.92;;;19.80;99.90;;;;;;5032630;28;20037;-72
2022/07/21 03:44:16;;;;;;;19.88;17.02;;;19.80;99.90;;;;;;5049426;28;20063;-72
2022/07/21 03:46:47;;;;;;;18.45;16.58;;;19.80;99.90;;;;;;5031024;28;20044;-72
2022/07/21 03:49:19;;;;;;;18.42;16.42;;;19.80;99.90;;;;;;5033692;28;20037;-72
2022/07/21 03:51:46;;;;;;;18.95;16.95;;;19.80;99.90;;;;;;5033098;28;20047;-72
2022/07/21 03:54:12;;;;;;;20.35;18.13;;;19.80;99.90;;;;;;5041551;28;20059;-72
2022/07/21 03:56:44;;;;;;;19.33;17.33;;;19.70;99.90;;;;;;5047780;28;20075;-72
2022/07/21 03:59:17;;;;;;;19.05;17.02;;;19.70;99.90;;;;;;5048682;28;20033;-72
2022/07/21 04:01:48;;;;;;;18.80;16.80;;;19.60;99.90;;;;;;5017201;28;20060;-72
2022/07/21 04:04:20;;;;;;;22.60;18.33;;;19.60;99.90;;;;;;5029383;28;20288;-73
2022/07/21 04:06:52;;;;;;;21.50;18.55;;;19.50;99.90;;;;;;5043161;28;20076;-72
2022/07/21 04:09:23;;;;;;;21.58;18.80;;;19.50;99.90;;;;;;5047188;28;20408;-72
2022/07/21 04:11:55;;;;;;;23.33;18.65;;;19.50;99.90;;;;;;5050828;28;20052;-73
2022/07/21 04:14:27;;;;;;;20.98;18.85;;;19.50;99.90;;;;;;5021794;28;20136;-72
2022/07/21 04:16:58;;;;;;;21.40;19.20;;;19.40;99.90;;;;;;5048508;28;20504;-72
2022/07/21 04:19:30;;;;;;;21.77;19.08;;;19.40;99.90;;;;;;5013351;28;20029;-72
2022/07/21 04:22:02;;;;;;;20.90;18.80;;;19.40;99.90;;;;;;5050156;28;20032;-72
2022/07/21 04:24:34;;;;;;;20.60;18.48;;;19.40;99.90;;;;;;5032321;28;20080;-72
2022/07/21 04:27:06;;;;;;;20.80;18.15;;;19.40;99.90;;;;;;5034063;28;20547;-72
2022/07/21 04:29:37;;;;;;;22.08;19.73;;;19.40;99.90;;;;;;5034088;28;20029;-72
2022/07/21 04:32:04;;;;;;;21.95;19.65;;;19.40;99.90;;;;;;5033772;28;20068;-72
2022/07/21 04:34:36;;;;;;;22.48;20.17;;;19.40;99.90;;;;;;5015669;28;20053;-72
2022/07/21 04:37:03;;;;;;;21.33;19.02;;;19.40;99.90;;;;;;5029201;28;20037;-72
2022/07/21 04:39:30;;;;;;;22.35;20.13;;;19.50;99.90;;;;;;5028795;28;20476;-71
2022/07/21 04:42:02;;;;;;;22.33;20.17;;;19.50;99.90;;;;;;5049478;28;20037;-72
2022/07/21 04:44:33;;;;;;;24.20;21.63;;;19.50;99.90;;;;;;5047248;28;20064;-74
2022/07/21 04:47:00;;;;;;;22.65;20.33;;;19.50;99.90;;;;;;5034888;28;20046;-71
2022/07/21 04:49:27;;;;;;;22.65;20.25;;;19.50;99.90;;;;;;5031306;28;20045;-72
2022/07/21 04:51:59;;;;;;;23.13;20.75;;;19.50;99.90;;;;;;5029904;28;20081;-72
2022/07/21 04:54:30;;;;;;;23.67;21.13;;;19.50;99.90;;;;;;5027526;28;20045;-72
2022/07/21 04:57:04;;;;;;;24.13;21.30;;;19.50;99.90;;;;;;5031554;28;20071;-71
2022/07/21 04:59:35;;;;;;;22.73;20.33;;;19.60;99.90;;;;;;5033584;28;20041;-72
2022/07/21 05:02:08;;;;;;;24.27;21.88;;;19.60;99.90;;;;;;5034013;28;20071;-71
2022/07/21 05:04:39;;;;;;;26.33;22.43;;;19.60;99.90;;;;;;5038054;28;20113;-72
2022/07/21 05:07:11;;;;;;;26.83;21.25;;;19.60;99.90;;;;;;5041428;28;20046;-71
2022/07/21 05:09:43;;;;;;;24.55;21.67;;;19.60;99.90;;;;;;5038302;28;20436;-71
2022/07/21 05:12:14;;;;;;;24.15;21.75;;;19.60;99.90;;;;;;5045955;28;20047;-72
2022/07/21 05:14:46;;;;;;;25.50;22.83;;;19.70;99.90;;;;;;5041733;28;20041;-72
2022/07/21 05:17:18;;;;;;;24.75;22.15;;;19.70;99.90;;;;;;5031248;28;20055;-72
2022/07/21 05:19:50;;;;;;;23.05;20.60;;;19.70;99.90;;;;;;5041906;28;20124;-71
2022/07/21 05:22:22;;;;;;;25.05;22.33;;;19.70;99.90;;;;;;5040377;28;20408;-72
2022/07/21 05:24:53;;;;;;;22.88;20.45;;;19.70;99.90;;;;;;5043331;28;20037;-72
2022/07/21 05:27:25;;;;;;;24.88;22.40;;;19.70;99.90;;;;;;5030042;28;20060;-71
2022/07/21 05:29:57;;;;;;;24.75;22.10;;;19.80;99.90;;;;;;5022333;28;20043;-71
2022/07/21 05:32:29;;;;;;;24.70;21.95;;;19.80;99.90;;;;;;5044068;28;20116;-71
2022/07/21 05:35:01;;;;;;;24.98;22.17;;;19.80;99.90;;;;;;5029381;28;20033;-71
2022/07/21 05:37:33;;;;;;;25.58;22.20;;;19.70;99.90;;;;;;5029134;28;20044;-71
2022/07/21 05:40:06;;;;;;;24.48;21.95;;;19.80;99.90;;;;;;5042774;28;20037;-71
2022/07/21 05:42:39;;;;;;;26.00;22.40;;;19.70;99.90;;;;;;5021036;28;20053;-71
2022/07/21 05:45:11;;;;;;;25.27;21.95;;;19.70;99.90;;;;;;5032637;28;20116;-71
2022/07/21 05:47:43;;;;;;;24.23;21.77;;;19.80;99.90;;;;;;5030821;28;20037;-71
2022/07/21 05:50:15;;;;;;;24.85;22.35;;;19.80;99.90;;;;;;5033436;28;20051;-71
2022/07/21 05:52:47;;;;;;;27.20;22.63;;;19.80;99.90;;;;;;5040289;28;20041;-71
2022/07/21 05:55:18;;;;;;;26.67;23.65;;;19.90;99.90;;;;;;5042387;28;20040;-71
2022/07/21 05:57:50;;;;;;;26.55;22.40;;;19.90;99.90;;;;;;5038266;28;20036;-71
2022/07/21 06:00:22;;;;;;;24.75;22.13;;;19.90;99.90;;;;;;5032198;28;20045;-71
2022/07/21 06:02:50;;;;;;;24.60;22.10;;;19.90;99.90;;;;;;5030902;28;20044;-71
2022/07/21 06:05:22;;;;;;;24.58;21.98;;;19.90;99.90;;;;;;5029423;28;20045;-71
2022/07/21 06:07:53;;;;;;;22.85;20.65;;;20.00;99.90;;;;;;5030063;28;20045;-71
2022/07/21 06:10:25;;;;;;;23.80;21.27;;;20.00;99.90;;;;;;5027466;28;20049;-71
2022/07/21 06:12:57;;;;;;;23.30;21.00;;;20.00;99.90;;;;;;5033926;28;20045;-71
2022/07/21 06:15:29;;;;;;;23.02;20.73;;;20.10;99.90;;;;;;5030196;28;20400;-71
2022/07/21 06:18:00;;;;;;;22.30;20.00;;;20.10;99.90;;;;;;5049956;28;20032;-72
2022/07/21 06:20:32;;;;;;;23.30;20.80;;;20.00;99.90;;;;;;5020512;28;20045;-71
2022/07/21 06:23:04;;;;;;;23.15;20.65;;;20.00;99.90;;;;;;5034493;28;20051;-71
2022/07/21 06:25:36;;;;;;;22.55;20.20;;;20.00;99.90;;;;;;5051421;28;20049;-71
2022/07/21 06:28:07;;;;;;;24.38;20.88;;;20.10;99.90;;;;;;5032662;28;20136;-71
2022/07/21 06:30:40;;;;;;;22.42;20.17;;;20.20;99.90;;;;;;5036689;28;20489;-71
2022/07/21 06:33:12;;;;;;;23.45;21.05;;;20.20;99.90;;;;;;5048060;28;20037;-71
2022/07/21 06:35:43;;;;;;;23.17;20.83;;;20.30;99.90;;;;;;5032419;28;20742;-71
2022/07/21 06:38:15;;;;;;;22.52;19.25;;;20.30;99.90;;;;;;5033809;28;20037;-71
2022/07/21 06:40:47;;;;;;;23.20;19.77;;;20.40;99.90;;;;;;5049434;28;20040;-71
2022/07/21 06:43:18;;;;;;;20.35;18.02;;;20.40;99.90;;;;;;5034059;28;20127;-71
2022/07/21 06:45:50;;;;;;;29.05;19.60;;;20.40;99.90;;;;;;5022484;28;20049;-71
2022/07/21 06:48:23;;;;;;;20.88;18.70;;;20.40;99.90;;;;;;5032682;28;20131;-72
2022/07/21 06:50:56;;;;;;;21.08;18.95;;;20.50;99.90;;;;;;5018499;28;20045;-71
2022/07/21 06:53:27;;;;;;;21.95;19.75;;;20.50;99.90;;;;;;5017958;28;20409;-72
2022/07/21 06:55:59;;;;;;;20.83;18.63;;;20.60;99.90;;;;;;5027832;28;20560;-71
2022/07/21 06:58:32;;;;;;;18.33;16.33;;;20.60;99.90;;;;;;5012101;28;20064;-71
2022/07/21 07:01:04;;;;;;;;;;;20.60;99.90;;;;;;5027458;28;20058;-71
2022/07/21 07:03:31;;;;;;;20.83;18.65;;;20.60;99.90;;;;;;5029974;28;20387;-71
2022/07/21 07:06:04;;;;;;;20.63;18.52;;;20.50;99.90;;;;;;5030637;28;20045;-71
2022/07/21 07:08:36;;;;;;;18.00;14.88;;;20.60;99.90;;;;;;5032935;28;20049;-71
2022/07/21 07:11:08;;;;;;;19.88;17.48;;;20.60;99.90;;;;;;5032923;28;20051;-71
2022/07/21 07:13:40;;;;;;;19.77;17.63;;;20.60;99.90;;;;;;5048515;28;20045;-71
2022/07/21 07:16:07;;;;;;;19.05;17.10;;;20.60;99.90;;;;;;5049181;28;20040;-71
2022/07/21 07:18:36;;;;;;;19.42;16.92;;;20.70;99.90;;;;;;5039892;28;20098;-71
2022/07/21 07:21:03;;;;;;;18.58;16.75;;;20.80;99.90;;;;;;5032909;28;20045;-71
2022/07/21 07:23:34;;;;;;;18.00;16.17;;;20.90;99.90;;;;;;5049453;28;20056;-71
2022/07/21 07:26:01;;;;;;;16.58;14.88;;;21.00;99.90;;;;;;5049586;28;20481;-71
2022/07/21 07:28:33;;;;;;;18.77;15.25;;;21.00;99.90;;;;;;5015044;28;20118;-71
2022/07/21 07:31:05;;;;;;;17.42;15.68;;;21.00;99.90;;;;;;5025662;28;20060;-71
2022/07/21 07:33:37;;;;;;;15.70;14.18;;;21.20;99.90;;;;;;5047740;28;20091;-72
2022/07/21 07:36:11;;;;;;;15.73;14.13;;;21.20;99.90;;;;;;5027747;28;21008;-71
2022/07/21 07:38:43;;;;;;;16.08;14.48;;;21.30;99.90;;;;;;5046574;28;20055;-71
2022/07/21 07:41:15;;;;;;;15.45;13.93;;;21.30;99.90;;;;;;5033667;28;20045;-71
2022/07/21 07:43:47;;;;;;;16.52;14.73;;;21.30;99.90;;;;;;5025386;28;20054;-71
2022/07/21 07:46:19;;;;;;;15.50;13.90;;;21.10;99.90;;;;;;5027788;28;20057;-71
2022/07/21 07:48:51;;;;;;;16.20;14.52;;;21.10;99.90;;;;;;5050288;28;20124;-71
2022/07/21 07:51:23;;;;;;;17.33;15.52;;;21.00;99.90;;;;;;5050458;28;20135;-71
2022/07/21 07:53:55;;;;;;;17.80;14.82;;;21.00;99.90;;;;;;5032590;28;20059;-71
2022/07/21 07:56:26;;;;;;;17.05;15.32;;;21.10;99.90;;;;;;5029384;28;20088;-71
2022/07/21 07:58:58;;;;;;;18.52;16.35;;;21.10;99.90;;;;;;5012804;28;20049;-71
2022/07/21 08:01:30;;;;;;;16.35;14.73;;;21.20;99.90;;;;;;5030133;28;20048;-71
2022/07/21 08:04:02;;;;;;;16.63;14.48;;;21.10;99.90;;;;;;5046282;23;20045;-69
2022/07/21 08:06:34;;;;;;;15.25;13.70;;;21.10;99.90;;;;;;5009362;28;20044;-69
2022/07/21 08:09:06;;;;;;;16.00;14.45;;;21.10;99.90;;;;;;5009410;28;20045;-70
2022/07/21 08:11:37;;;;;;;18.63;16.67;;;21.10;99.90;;;;;;5009994;28;20355;-69
2022/07/21 08:14:09;;;;;;;16.35;14.68;;;21.10;99.90;;;;;;5000665;28;20057;-70
2022/07/21 08:16:42;;;;;;;18.38;14.55;;;21.10;99.90;;;;;;5006539;28;20494;-70
2022/07/21 08:19:13;;;;;;;19.35;15.13;;;21.10;99.90;;;;;;5007888;28;20523;-69
2022/07/21 08:21:45;;;;;;;17.20;15.50;;;21.10;99.90;;;;;;5010497;28;20049;-70
2022/07/21 08:24:17;;;;;;;16.38;14.77;;;21.20;99.90;;;;;;5007141;28;20038;-69
2022/07/21 08:26:49;;;;;;;17.05;14.65;;;21.20;99.90;;;;;;5006253;28;20034;-69
2022/07/21 08:29:21;;;;;;;16.50;14.80;;;21.30;99.90;;;;;;5010453;28;20046;-70
2022/07/21 08:31:53;;;;;;;16.70;15.13;;;21.30;99.90;;;;;;5010900;28;20128;-70
2022/07/21 08:34:26;;;;;;;17.35;13.55;;;21.30;99.90;;;;;;5011867;28;20041;-70
2022/07/21 08:36:58;;;;;;;15.18;13.65;;;21.30;99.90;;;;;;5012808;28;20037;-69
2022/07/21 08:39:29;;;;;;;15.23;13.65;;;21.30;99.90;;;;;;5014022;28;20048;-70
2022/07/21 08:42:01;;;;;;;14.90;13.50;;;21.30;99.90;;;;;;5012267;28;20045;-69
2022/07/21 08:44:34;;;;;;;14.95;13.52;;;21.30;99.90;;;;;;5010357;28;20080;-70
2022/07/21 08:47:06;;;;;;;14.25;12.95;;;21.40;99.90;;;;;;5013452;28;20421;-70
2022/07/21 08:49:38;;;;;;;15.90;13.98;;;21.40;99.90;;;;;;5007389;28;20046;-70
2022/07/21 08:52:09;;;;;;;14.55;13.10;;;21.50;99.90;;;;;;5008470;28;20077;-71
2022/07/21 08:54:41;;;;;;;14.60;13.13;;;21.60;99.90;;;;;;5008399;28;20509;-69
2022/07/21 08:57:13;;;;;;;14.50;13.00;;;21.60;99.90;;;;;;5007968;28;20034;-70
2022/07/21 08:59:44;;;;;;;16.02;13.82;;;21.60;99.90;;;;;;5001329;28;20514;-70
2022/07/21 09:02:31;;;;;;;14.80;13.30;;;21.50;99.90;;;;;;5011556;28;20050;-71
2022/07/21 09:05:05;;;;;;;15.68;14.15;;;21.50;99.90;;;;;;4991260;28;20046;-70
2022/07/21 09:07:53;;;;;;;13.68;12.27;;;21.60;99.90;;;;;;5011004;28;20486;-71
2022/07/21 09:10:28;;;;;;;14.73;12.02;;;21.70;99.90;;;;;;5007362;28;20100;-70
2022/07/21 09:13:04;;;;;;;18.88;13.90;;;21.80;99.90;;;;;;5013067;28;20046;-70
2022/07/21 09:15:36;;;;;;;12.60;11.30;;;21.80;99.90;;;;;;5003654;28;20038;-69
2022/07/21 09:18:15;;;;;;;14.02;12.50;;;21.90;99.90;;;;;;5011266;28;20046;-69
2022/07/21 09:20:52;;;;;;;14.18;11.38;;;22.00;99.90;;;;;;5010290;28;20041;-69
2022/07/21 09:23:25;;;;;;;13.25;11.52;;;22.10;99.90;;;;;;5019474;28;20148;-69
2022/07/21 09:25:58;;;;;;;11.40;10.17;;;22.30;99.90;;;;;;5014273;28;20081;-69
2022/07/21 09:28:30;;;;;;;12.25;10.95;;;22.40;99.90;;;;;;5006840;28;20048;-70
2022/07/21 09:31:08;;;;;;;12.20;11.00;;;22.60;99.90;;;;;;5011548;28;20044;-70
2022/07/21 09:33:43;;;;;;;11.95;10.75;;;22.70;99.90;;;;;;4995446;28;20042;-69
2022/07/21 09:36:16;;;;;;;13.27;11.98;;;22.80;99.90;;;;;;5009889;28;20042;-71
2022/07/21 09:38:55;;;;;;;11.98;10.88;;;22.90;99.90;;;;;;5003605;28;20042;-70
2022/07/21 09:41:27;;;;;;;11.73;10.63;;;22.90;99.90;;;;;;4997464;28;20957;-69
2022/07/21 09:43:59;;;;;;;12.27;11.07;;;22.90;99.90;;;;;;4999379;28;20045;-69
2022/07/21 09:46:30;;;;;;;11.95;10.75;;;23.10;99.90;;;;;;5002750;28;20046;-69
2022/07/21 09:49:04;;;;;;;13.35;11.77;;;23.10;99.90;;;;;;4996167;28;20050;-70
2022/07/21 09:51:37;;;;;;;12.27;10.85;;;23.20;99.90;;;;;;5000712;28;20037;-71
2022/07/21 09:54:12;;;;;;;12.20;11.00;;;23.40;99.90;;;;;;5005184;28;20088;-69
2022/07/21 09:56:45;;;;;;;12.65;11.40;;;23.60;99.90;;;;;;5003054;28;20533;-70
2022/07/21 09:59:17;;;;;;;11.85;10.75;;;23.60;99.90;;;;;;4991895;28;20049;-70
2022/07/21 10:01:50;;;;;;;12.60;11.40;;;23.60;99.90;;;;;;5003070;28;20062;-70
2022/07/21 10:04:24;;;;;;;14.15;11.90;;;23.60;99.90;;;;;;5015177;28;20136;-73
2022/07/21 10:06:51;;;;;;;13.48;11.55;;;23.50;99.90;;;;;;5017517;28;20045;-73
2022/07/21 10:09:23;;;;;;;11.93;10.82;;;23.50;99.90;;;;;;5030401;28;20123;-71
2022/07/21 10:11:55;;;;;;;11.27;10.20;;;23.50;99.90;;;;;;4999292;28;20081;-71
2022/07/21 10:14:22;;;;;;;12.55;11.35;;;23.50;99.90;;;;;;5012078;28;20045;-68
2022/07/21 10:16:53;;;;;;;13.75;12.32;;;23.40;99.90;;;;;;5013427;28;20038;-68
2022/07/21 10:19:25;;;;;;;12.75;11.45;;;23.40;99.90;;;;;;5032276;28;20044;-70
2022/07/21 10:22:33;;;;;;;13.50;11.75;;;23.50;99.90;;;;;;5016448;28;20049;-68
2022/07/21 10:25:06;;;;;;;13.00;11.23;;;23.60;99.90;;;;;;5028589;28;20052;-68
2022/07/21 10:27:38;;;;;;;12.40;11.02;;;23.80;99.90;;;;;;5024386;28;20046;-69
2022/07/21 10:30:10;;;;;;;13.77;12.25;;;24.00;99.90;;;;;;5022360;28;20045;-70
2022/07/21 10:32:50;;;;;;;12.40;11.18;;;24.10;99.90;;;;;;4994937;28;20557;-69
2022/07/21 10:35:28;;;;;;;12.07;10.60;;;24.30;99.90;;;;;;5023348;28;20046;-70
2022/07/21 10:38:02;;;;;;;13.35;12.00;;;24.50;99.90;;;;;;5008260;28;20052;-70
2022/07/21 10:40:35;;;;;;;12.90;11.60;;;24.50;99.90;;;;;;5010824;28;20527;-70
2022/07/21 10:43:06;;;;;;;14.55;12.30;;;24.40;99.90;;;;;;5019468;28;20591;-70
2022/07/21 10:45:40;;;;;;;13.85;12.55;;;24.40;99.90;;;;;;5009981;28;20509;-69
2022/07/21 10:48:37;;;;;;;14.45;13.15;;;24.60;99.90;;;;;;5033424;28;20036;-69
2022/07/21 10:51:14;;;;;;;14.38;13.02;;;24.80;99.90;;;;;;5032446;28;20052;-68
2022/07/21 10:54:05;;;;;;;13.38;12.20;;;24.80;99.90;;;;;;5023318;28;20497;-70
2022/07/21 10:56:37;;;;;;;13.65;12.35;;;24.70;99.90;;;;;;5013184;28;20537;-69
2022/07/21 10:59:09;;;;;;;14.40;13.00;;;24.50;99.90;;;;;;5012663;28;20057;-69
2022/07/21 11:01:41;;;;;;;15.25;13.77;;;24.40;99.90;;;;;;5023934;28;20041;-70
2022/07/21 11:04:17;;;;;;;12.77;11.57;;;24.30;99.90;;;;;;5028866;28;20046;-69
2022/07/21 11:06:50;;;;;;;15.13;12.70;;;24.30;99.90;;;;;;5023454;28;20044;-69
2022/07/21 11:09:21;;;;;;;13.05;11.75;;;24.10;99.90;;;;;;4998606;28;20042;-69
2022/07/21 11:12:01;;;;;;;13.18;11.80;;;24.10;99.90;;;;;;5032162;28;20045;-69
2022/07/21 11:14:41;;;;;;;12.45;11.25;;;24.00;99.90;;;;;;5017748;28;20564;-69
2022/07/21 11:17:35;;;;;;;13.60;12.20;;;24.00;99.90;;;;;;5027417;28;20046;-68
2022/07/21 11:20:15;;;;;;;12.95;11.40;;;23.90;99.90;;;;;;4996292;28;20518;-68
2022/07/21 11:22:44;;;;;;;14.10;11.95;;;23.80;99.90;;;;;;5021958;28;20514;-68
2022/07/21 11:25:16;;;;;;;14.55;13.05;;;23.80;99.90;;;;;;5013780;28;20033;-71
2022/07/21 11:27:47;;;;;;;14.75;12.13;;;23.80;99.90;;;;;;5023199;28;20053;-69
2022/07/21 11:30:19;;;;;;;15.38;11.90;;;23.80;99.90;;;;;;5004288;28;20056;-68
2022/07/21 11:32:52;;;;;;;13.65;12.23;;;23.90;99.90;;;;;;5014603;28;20034;-68
2022/07/21 11:35:23;;;;;;;13.50;12.10;;;24.00;99.90;;;;;;5029992;28;20041;-69
2022/07/21 11:37:55;;;;;;;14.27;12.85;;;24.00;99.90;;;;;;5031142;28;20494;-68
2022/07/21 11:40:28;;;;;;;13.13;11.98;;;24.00;99.90;;;;;;5031261;28;20120;-69
2022/07/21 11:43:00;;;;;;;13.95;12.25;;;24.20;99.90;;;;;;5031013;28;20050;-69
2022/07/21 11:45:32;;;;;;;13.93;12.50;;;24.30;99.90;;;;;;5026718;28;20053;-69
2022/07/21 11:48:04;;;;;;;13.40;12.02;;;24.50;99.90;;;;;;5031044;28;20061;-70
2022/07/21 11:50:35;;;;;;;13.73;12.23;;;24.50;99.90;;;;;;5031052;28;20069;-68
2022/07/21 11:53:07;;;;;;;14.02;12.50;;;24.50;99.90;;;;;;5029908;28;20050;-69
2022/07/21 11:55:39;;;;;;;14.00;12.57;;;24.40;99.90;;;;;;5029862;28;20045;-69
2022/07/21 11:58:15;;;;;;;13.65;12.32;;;24.30;99.90;;;;;;5014174;28;20045;-68
2022/07/21 12:00:47;;;;;;;13.85;12.55;;;24.30;99.90;;;;;;5002959;28;20048;-70
2022/07/21 12:03:20;;;;;;;13.70;12.30;;;24.30;99.90;;;;;;5024058;28;20045;-69
2022/07/21 12:05:52;;;;;;;12.73;11.52;;;24.30;99.90;;;;;;5026985;28;20045;-69
2022/07/21 12:08:24;;;;;;;14.00;12.70;;;24.30;99.90;;;;;;5008005;28;20042;-69
2022/07/21 12:11:12;;;;;;;15.18;12.82;;;24.30;99.90;;;;;;5025570;28;20044;-69
2022/07/21 12:13:58;;;;;;;16.35;14.70;;;24.10;99.90;;;;;;5017036;28;20046;-69
2022/07/21 12:16:30;;;;;;;15.57;14.07;;;24.00;99.90;;;;;;5028456;28;20037;-69
2022/07/21 12:19:10;;;;;;;15.40;13.80;;;23.90;99.90;;;;;;5025573;28;20069;-70
2022/07/21 12:21:50;;;;;;;14.35;13.00;;;23.90;99.90;;;;;;5020609;28;20062;-70
2022/07/21 12:24:22;;;;;;;14.30;12.88;;;24.00;99.90;;;;;;5024658;28;20125;-70
2022/07/21 12:27:11;;;;;;;14.80;12.70;;;24.00;99.90;;;;;;5022587;28;20060;-69
2022/07/21 12:29:42;;;;;;;14.20;12.82;;;24.00;99.90;;;;;;5023570;28;20042;-70
2022/07/21 12:32:34;;;;;;;14.63;13.10;;;24.10;99.90;;;;;;5026195;28;20076;-68
2022/07/21 12:35:16;;;;;;;13.75;12.35;;;24.30;99.90;;;;;;5019899;28;20037;-70
2022/07/21 12:38:01;;;;;;;13.18;11.88;;;24.30;99.90;;;;;;5013167;28;20132;-69
2022/07/21 12:40:34;;;;;;;15.07;13.35;;;24.60;99.90;;;;;;5029602;28;20034;-69
2022/07/21 12:43:17;;;;;;;13.32;11.93;;;24.90;99.90;;;;;;5026147;28;20072;-69
2022/07/21 12:45:59;;;;;;;14.75;13.23;;;25.10;99.90;;;;;;5029253;28;20045;-69
2022/07/21 12:48:33;;;;;;;13.77;12.47;;;25.40;99.90;;;;;;5034690;28;20401;-69
2022/07/21 12:51:20;;;;;;;13.40;12.10;;;25.60;99.90;;;;;;5021590;28;20292;-69
2022/07/21 12:53:54;;;;;;;14.18;11.73;;;25.90;99.90;;;;;;5017375;28;20037;-70
2022/07/21 12:56:31;;;;;;;15.13;13.73;;;26.20;99.90;;;;;;5027663;28;20036;-69
2022/07/21 12:59:03;;;;;;;14.05;12.82;;;26.00;99.90;;;;;;5022228;28;20076;-70
2022/07/21 13:01:38;;;;;;;14.70;13.25;;;25.70;99.90;;;;;;5021850;28;20414;-70